Time;durP1;ratioP1;P1;durP2;ratioP2;P2;SDS_P1;SDS_P2;PMS_P1;PMS_P2;Temp;Humidity;BMP_temperature;BMP_pressure;BME280_temperature;BME280_humidity;BME280_pressure;Samples;Min_cycle;Max_cycle;Signal;HPM_P1;HPM_P2
2023/06/10 00:01:30;;;;;;;1999.90;999.90;;;;;;;16.38;100.00;97492.03;5111503;28;20035;-74
2023/06/10 00:03:55;;;;;;;1999.90;999.90;;;;;;;16.44;100.00;97485.94;5110866;28;20053;-74
2023/06/10 00:06:24;;;;;;;1999.90;999.90;;;;;;;16.37;100.00;97471.91;5109662;28;20077;-75
2023/06/10 00:08:49;;;;;;;1999.90;999.90;;;;;;;16.43;100.00;97475.25;5111230;28;20369;-74
2023/06/10 00:11:14;;;;;;;1999.90;999.90;;;;;;;16.30;100.00;97479.13;5110951;28;20015;-75
2023/06/10 00:13:40;;;;;;;1999.90;999.90;;;;;;;16.27;100.00;97486.16;5110779;28;20063;-73
2023/06/10 00:16:05;;;;;;;1999.90;999.90;;;;;;;16.20;100.00;97480.38;5110778;28;20023;-75
2023/06/10 00:18:31;;;;;;;1999.90;999.90;;;;;;;16.17;100.00;97483.03;5111019;28;20027;-74
2023/06/10 00:20:57;;;;;;;1999.90;999.90;;;;;;;16.15;100.00;97479.81;5110952;28;20080;-75
2023/06/10 00:23:24;;;;;;;1999.90;999.90;;;;;;;16.12;100.00;97481.31;5111117;28;20510;-75
2023/06/10 00:25:50;;;;;;;1999.90;999.90;;;;;;;16.18;100.00;97481.88;5109439;28;20506;-76
2023/06/10 00:28:15;;;;;;;1999.90;999.90;;;;;;;16.23;100.00;97485.22;5109667;28;20051;-76
2023/06/10 00:30:40;;;;;;;1999.90;999.90;;;;;;;16.17;100.00;97472.81;5111027;28;20027;-76
2023/06/10 00:33:06;;;;;;;1999.90;999.90;;;;;;;16.15;100.00;97475.09;5110901;28;20070;-77
2023/06/10 00:35:31;;;;;;;1999.90;999.90;;;;;;;16.04;100.00;97477.50;5110972;28;20057;-74
2023/06/10 00:37:56;;;;;;;1999.90;999.90;;;;;;;16.04;100.00;97474.72;5111002;28;20031;-75
2023/06/10 00:40:21;;;;;;;1999.90;999.90;;;;;;;15.95;100.00;97485.06;5109859;28;20019;-74
2023/06/10 00:42:47;;;;;;;1999.90;999.90;;;;;;;15.97;100.00;97474.50;5111009;28;20047;-77
2023/06/10 00:45:12;;;;;;;1999.90;999.90;;;;;;;15.84;100.00;97483.91;5109286;28;20591;-76
2023/06/10 00:47:38;;;;;;;1999.90;999.90;;;;;;;15.77;100.00;97486.41;5095408;28;20036;-75
2023/06/10 00:50:05;;;;;;;1999.90;999.90;;;;;;;15.66;100.00;97474.22;5072029;28;20024;-75
2023/06/10 00:52:30;;;;;;;1999.90;999.90;;;;;;;15.65;100.00;97488.31;5074725;28;20398;-74
2023/06/10 00:54:56;;;;;;;1999.90;999.90;;;;;;;15.60;100.00;97472.78;5075455;28;20035;-74
2023/06/10 00:57:21;;;;;;;1999.90;999.90;;;;;;;15.54;100.00;97472.19;5094433;28;20473;-74
2023/06/10 00:59:49;;;;;;;1999.90;999.90;;;;;;;15.56;100.00;97474.63;5075396;28;20509;-75
2023/06/10 01:02:15;;;;;;;1999.90;999.90;;;;;;;15.55;100.00;97478.53;5094735;28;20225;-74
2023/06/10 01:04:41;;;;;;;1999.90;999.90;;;;;;;15.50;100.00;97465.78;5076543;28;20117;-77
2023/06/10 01:07:45;;;;;;;1999.90;999.90;;;;;;;15.51;100.00;97478.38;5104540;28;20084;-76
2023/06/10 01:10:28;;;;;;;1999.90;999.90;;;;;;;15.51;100.00;97480.34;5094118;28;20020;-75
2023/06/10 01:13:06;;;;;;;1999.90;999.90;;;;;;;15.45;100.00;97473.38;5093791;28;20039;-74
2023/06/10 01:15:32;;;;;;;1999.90;999.90;;;;;;;15.50;100.00;97478.75;5093649;28;20416;-74
2023/06/10 01:18:01;;;;;;;1999.90;999.90;;;;;;;15.49;100.00;97480.69;5075416;28;20032;-75
2023/06/10 01:20:27;;;;;;;1999.90;999.90;;;;;;;15.39;100.00;97477.50;5093710;28;20125;-75
2023/06/10 01:22:57;;;;;;;1999.90;999.90;;;;;;;15.40;100.00;97487.38;5075389;28;20054;-74
2023/06/10 01:25:27;;;;;;;1999.90;999.90;;;;;;;15.34;100.00;97484.03;5075803;28;20016;-74
2023/06/10 01:27:59;;;;;;;1999.90;999.90;;;;;;;15.37;100.00;97488.06;5093608;28;20024;-75
2023/06/10 01:30:29;;;;;;;1999.90;999.90;;;;;;;15.29;100.00;97475.97;5075288;28;20024;-78
2023/06/10 01:32:57;;;;;;;1999.90;999.90;;;;;;;15.30;100.00;97479.53;5075404;28;20036;-75
2023/06/10 01:35:28;;;;;;;1999.90;999.90;;;;;;;15.33;100.00;97481.59;5075264;28;20114;-75
2023/06/10 01:37:56;;;;;;;1999.90;999.90;;;;;;;15.45;100.00;97474.19;5075244;28;20032;-74
2023/06/10 01:40:23;;;;;;;1999.90;999.90;;;;;;;15.53;100.00;97475.31;5075045;28;20404;-76
2023/06/10 01:42:49;;;;;;;1999.90;999.90;;;;;;;15.63;100.00;97491.41;5093236;28;20480;-77
2023/06/10 01:45:14;;;;;;;1999.90;999.90;;;;;;;15.61;100.00;97493.69;5093247;28;20213;-77
2023/06/10 01:47:39;;;;;;;1999.90;999.90;;;;;;;15.63;100.00;97480.38;5092509;28;20083;-74
2023/06/10 01:50:05;;;;;;;1999.90;999.90;;;;;;;15.68;100.00;97488.44;5093140;28;20028;-75
2023/06/10 01:52:31;;;;;;;1999.90;999.90;;;;;;;15.62;100.00;97492.56;5074972;28;20028;-75
2023/06/10 01:54:56;;;;;;;1999.90;999.90;;;;;;;15.63;100.00;97485.88;5092832;28;20071;-75
2023/06/10 01:57:21;;;;;;;1999.90;999.90;;;;;;;15.48;100.00;97478.25;5093046;28;20024;-75
2023/06/10 01:59:47;;;;;;;1999.90;999.90;;;;;;;15.32;100.00;97485.50;5074919;28;20085;-76
2023/06/10 02:02:12;;;;;;;1999.90;999.90;;;;;;;15.19;100.00;97481.09;5092868;28;20123;-79
2023/06/10 02:04:37;;;;;;;1999.90;999.90;;;;;;;15.15;100.00;97480.97;5092125;28;20599;-76
2023/06/10 02:07:04;;;;;;;1999.90;999.90;;;;;;;15.08;100.00;97479.88;5092665;28;20040;-76
2023/06/10 02:09:30;;;;;;;1999.90;999.90;;;;;;;15.19;100.00;97481.09;5092781;28;20036;-77
2023/06/10 02:11:55;;;;;;;1999.90;999.90;;;;;;;15.28;100.00;97479.06;5074527;28;20036;-75
2023/06/10 02:14:20;;;;;;;1999.90;999.90;;;;;;;15.29;100.00;97489.75;5055748;28;20423;-75
2023/06/10 02:16:46;;;;;;;1999.90;999.90;;;;;;;15.30;100.00;97482.28;5047588;28;20020;-76
2023/06/10 02:19:12;;;;;;;1999.90;999.90;;;;;;;15.16;100.00;97482.56;5072189;28;20033;-75
2023/06/10 02:21:38;;;;;;;1999.90;999.90;;;;;;;14.99;100.00;97466.97;5054518;28;20028;-76
2023/06/10 02:24:04;;;;;;;1999.90;999.90;;;;;;;14.97;100.00;97472.00;5054384;28;20032;-75
2023/06/10 02:26:29;;;;;;;1999.90;999.90;;;;;;;15.14;100.00;97489.53;5072249;28;20067;-77
2023/06/10 02:28:54;;;;;;;1999.90;999.90;;;;;;;15.12;100.00;97484.38;5072291;28;20401;-76
2023/06/10 02:31:20;;;;;;;1999.90;999.90;;;;;;;15.13;100.00;97493.47;5072285;28;20393;-77
2023/06/10 02:33:46;;;;;;;1999.90;999.90;;;;;;;15.06;100.00;97493.19;5054195;28;20032;-76
2023/06/10 02:36:13;;;;;;;1999.90;999.90;;;;;;;14.88;100.00;97467.69;5054058;28;20389;-76
2023/06/10 02:38:41;;;;;;;1999.90;999.90;;;;;;;14.91;100.00;97487.13;5054025;28;20025;-76
2023/06/10 02:41:07;;;;;;;1999.90;999.90;;;;;;;14.85;100.00;97488.47;5072019;28;20024;-77
2023/06/10 02:43:32;;;;;;;1999.90;999.90;;;;;;;14.84;100.00;97480.53;5071504;28;20623;-74
2023/06/10 02:45:58;;;;;;;1999.90;999.90;;;;;;;14.90;100.00;97476.44;5071633;28;20029;-78
2023/06/10 02:48:27;;;;;;;1999.90;999.90;;;;;;;14.88;100.00;97485.03;5054254;28;20037;-75
2023/06/10 02:50:53;;;;;;;1999.90;999.90;;;;;;;14.85;100.00;97468.38;5069979;28;20501;-75
2023/06/10 02:53:18;;;;;;;1999.90;999.90;;;;;;;14.78;100.00;97474.44;5065187;28;20044;-74
2023/06/10 02:55:44;;;;;;;1999.90;999.90;;;;;;;14.76;100.00;97482.19;5051104;28;20028;-75
2023/06/10 02:58:09;;;;;;;1999.90;999.90;;;;;;;14.82;100.00;97477.28;5051357;28;20108;-74
2023/06/10 03:00:36;;;;;;;1999.90;999.90;;;;;;;14.86;100.00;97483.75;5051705;28;20036;-75
2023/06/10 03:03:03;;;;;;;1999.90;999.90;;;;;;;14.80;100.00;97466.63;5051868;28;20018;-75
2023/06/10 03:05:29;;;;;;;1999.90;999.90;;;;;;;14.76;100.00;97468.44;5056540;28;20024;-75
2023/06/10 03:07:55;;;;;;;1999.90;999.90;;;;;;;14.74;100.00;97480.94;5070440;28;20039;-75
2023/06/10 03:10:20;;;;;;;1999.90;999.90;;;;;;;14.58;100.00;97482.66;5070971;28;20040;-74
2023/06/10 03:12:45;;;;;;;1999.90;999.90;;;;;;;14.61;100.00;97477.28;5071387;28;20485;-74
2023/06/10 03:15:11;;;;;;;1999.90;999.90;;;;;;;14.65;100.00;97481.00;5076836;28;20032;-76
2023/06/10 03:17:36;;;;;;;1999.90;999.90;;;;;;;14.54;100.00;97479.75;5078131;28;20024;-79
2023/06/10 03:20:05;;;;;;;1999.90;999.90;;;;;;;14.58;100.00;97480.69;5071030;28;20028;-76
2023/06/10 03:22:30;;;;;;;1999.90;999.90;;;;;;;14.62;100.00;97487.16;5071047;28;20028;-74
2023/06/10 03:24:57;;;;;;;1999.90;999.90;;;;;;;14.70;100.00;97497.31;5070903;28;20035;-75
2023/06/10 03:27:22;;;;;;;1999.90;999.90;;;;;;;14.71;100.00;97495.38;5070730;28;20063;-75
2023/06/10 03:29:47;;;;;;;1999.90;999.90;;;;;;;14.79;100.00;97486.22;5070580;28;20060;-75
2023/06/10 03:32:13;;;;;;;1999.90;999.90;;;;;;;15.00;100.00;97498.88;5071355;28;20081;-74
2023/06/10 03:34:38;;;;;;;1999.90;999.90;;;;;;;15.20;100.00;97494.53;5070451;28;20103;-75
2023/06/10 03:37:04;;;;;;;1999.90;999.90;;;;;;;15.46;100.00;97503.38;5050310;28;20096;-76
2023/06/10 03:39:30;;;;;;;1999.90;999.90;;;;;;;15.43;100.00;97503.25;5032899;28;20561;-75
2023/06/10 03:41:56;;;;;;;1999.90;999.90;;;;;;;15.42;100.00;97512.66;5032896;28;20096;-77
2023/06/10 03:44:22;;;;;;;1999.90;999.90;;;;;;;15.80;100.00;97513.31;5051107;28;20025;-74
2023/06/10 03:46:47;;;;;;;1999.90;999.90;;;;;;;16.08;100.00;97496.94;5050825;28;20486;-75
2023/06/10 03:49:14;;;;;;;1999.90;999.90;;;;;;;16.70;100.00;97524.28;5050606;28;20082;-77
2023/06/10 03:51:40;;;;;;;1999.90;999.90;;;;;;;16.91;100.00;97522.22;5053692;28;20029;-80
2023/06/10 03:54:06;;;;;;;1999.90;999.90;;;;;;;17.35;100.00;97527.88;5056346;28;20033;-83
2023/06/10 03:56:32;;;;;;;1999.90;999.90;;;;;;;17.23;100.00;97506.59;5032478;28;20025;-84
2023/06/10 03:58:57;;;;;;;1999.90;999.90;;;;;;;16.94;100.00;97529.81;5049270;28;20017;-85
2023/06/10 04:01:24;;;;;;;1999.90;999.90;;;;;;;16.67;100.00;97527.72;5049430;28;20485;-86
2023/06/10 04:03:51;;;;;;;1999.90;999.90;;;;;;;16.60;100.00;97508.97;5040013;28;20068;-86
2023/06/10 04:06:17;;;;;;;1999.90;999.90;;;;;;;16.24;100.00;97500.66;5044995;28;20078;-85
2023/06/10 04:08:44;;;;;;;1999.90;999.90;;;;;;;16.07;100.00;97518.19;5048987;28;20020;-86
2023/06/10 04:11:10;;;;;;;1999.90;999.90;;;;;;;15.78;100.00;97501.81;5055928;28;20017;-89
2023/06/10 04:16:10;;;;;;;1999.90;999.90;;;;;;;15.64;100.00;97526.09;5155444;23;20065;-84
2023/06/10 04:18:36;;;;;;;1999.90;999.90;;;;;;;15.67;100.00;97519.91;5007070;28;20090;-84
2023/06/10 04:21:02;;;;;;;1999.90;999.90;;;;;;;15.56;100.00;97521.50;4972833;28;20023;-83
2023/06/10 04:23:28;;;;;;;1999.90;999.90;;;;;;;15.34;100.00;97517.13;4985878;28;20027;-85
2023/06/10 04:25:53;;;;;;;1999.90;999.90;;;;;;;15.32;100.00;97530.41;4983853;28;20031;-83
2023/06/10 04:28:18;;;;;;;1999.90;999.90;;;;;;;15.21;100.00;97526.44;4981284;28;20380;-84
2023/06/10 04:30:45;;;;;;;1999.90;999.90;;;;;;;15.09;100.00;97517.31;4979189;28;20033;-85
2023/06/10 04:33:11;;;;;;;1999.90;999.90;;;;;;;15.08;100.00;97515.69;4980806;28;20110;-83
2023/06/10 04:35:36;;;;;;;1999.90;999.90;;;;;;;15.10;100.00;97510.66;4977997;28;20054;-84
2023/06/10 04:38:02;;;;;;;1999.90;999.90;;;;;;;15.29;100.00;97524.75;5001708;28;20080;-86
2023/06/10 04:40:28;;;;;;;1999.90;999.90;;;;;;;15.28;100.00;97523.97;4992000;28;20027;-86
2023/06/10 04:42:53;;;;;;;1999.90;999.90;;;;;;;15.27;100.00;97527.88;4995056;28;20463;-86
2023/06/10 04:45:18;;;;;;;1999.90;999.90;;;;;;;15.28;100.00;97501.13;5001637;28;20022;-83
2023/06/10 04:47:44;;;;;;;1999.90;999.90;;;;;;;15.36;100.00;97509.31;5002831;28;20079;-85
2023/06/10 04:50:09;;;;;;;1999.90;999.90;;;;;;;15.52;100.00;97528.81;5001559;28;20061;-85
2023/06/10 04:52:34;;;;;;;1999.90;999.90;;;;;;;15.55;100.00;97525.38;5005908;28;20037;-85
2023/06/10 04:55:00;;;;;;;1999.90;999.90;;;;;;;15.69;100.00;97523.16;5004488;28;20032;-84
2023/06/10 04:57:26;;;;;;;1999.90;999.90;;;;;;;15.44;100.00;97516.69;5001570;28;20283;-85
2023/06/10 04:59:52;;;;;;;1999.90;999.90;;;;;;;15.50;100.00;97528.38;4982984;28;20037;-82
2023/06/10 05:02:18;;;;;;;1999.90;999.90;;;;;;;15.66;100.00;97518.31;5006272;28;20026;-86
2023/06/10 05:04:44;;;;;;;1999.90;999.90;;;;;;;15.71;100.00;97490.53;5011160;28;20033;-85
2023/06/10 05:07:10;;;;;;;1999.90;999.90;;;;;;;16.05;100.00;97514.97;4994414;28;20036;-87
2023/06/10 05:09:35;;;;;;;1999.90;999.90;;;;;;;16.12;100.00;97516.38;5013720;28;20046;-85
2023/06/10 05:12:01;;;;;;;1999.90;999.90;;;;;;;16.18;100.00;97515.81;5002603;28;20139;-84
2023/06/10 05:14:27;;;;;;;1999.90;999.90;;;;;;;16.52;100.00;97528.38;5006099;28;20103;-85
2023/06/10 05:16:52;;;;;;;1999.90;999.90;;;;;;;16.58;100.00;97513.22;5009209;28;20030;-86
2023/06/10 05:19:18;;;;;;;1999.90;999.90;;;;;;;16.87;100.00;97518.53;5008607;28;20026;-86
2023/06/10 05:21:44;;;;;;;1999.90;999.90;;;;;;;17.14;100.00;97503.97;5011164;28;20045;-85
2023/06/10 05:24:09;;;;;;;1999.90;999.90;;;;;;;17.29;100.00;97532.06;5021137;28;20017;-84
2023/06/10 05:26:37;;;;;;;1999.90;999.90;;;;;;;17.28;100.00;97522.94;4996198;28;20030;-85
2023/06/10 05:29:04;;;;;;;1999.90;999.90;;;;;;;17.52;100.00;97527.59;5026161;28;20078;-84
2023/06/10 05:31:29;;;;;;;1999.90;999.90;;;;;;;17.57;100.00;97527.38;5007152;28;20044;-85
2023/06/10 05:33:56;;;;;;;1999.90;999.90;;;;;;;17.47;100.00;97522.31;5005793;28;20030;-87
2023/06/10 05:36:21;;;;;;;1999.90;999.90;;;;;;;17.69;100.00;97529.28;5008668;28;20022;-85
2023/06/10 05:38:51;;;;;;;1999.90;999.90;;;;;;;17.97;100.00;97530.09;4994324;28;20040;-86
2023/06/10 05:41:20;;;;;;;1999.90;999.90;;;;;;;17.98;100.00;97501.25;5020133;28;20036;-85
2023/06/10 05:43:47;;;;;;;1999.90;999.90;;;;;;;18.20;100.00;97526.38;5005185;28;20045;-87
2023/06/10 05:46:16;;;;;;;1999.90;999.90;;;;;;;17.94;100.00;97531.63;4989827;28;20050;-88
2023/06/10 05:49:06;;;;;;;1999.90;999.90;;;;;;;18.18;100.00;97523.16;5036047;28;20002;-86
2023/06/10 05:51:57;;;;;;;1999.90;999.90;;;;;;;18.46;100.00;97527.81;5032553;28;20033;-86
2023/06/10 05:54:23;;;;;;;1999.90;999.90;;;;;;;18.42;100.00;97511.09;5019568;28;20030;-85
2023/06/10 05:56:48;;;;;;;1999.90;999.90;;;;;;;18.52;100.00;97531.97;5016840;28;20517;-87
2023/06/10 05:59:14;;;;;;;1999.90;999.90;;;;;;;18.82;100.00;97547.00;5001671;28;20495;-86
2023/06/10 06:01:39;;;;;;;1999.90;999.90;;;;;;;19.25;100.00;97538.50;5017087;28;20017;-86
2023/06/10 06:04:05;;;;;;;1999.90;999.90;;;;;;;19.63;100.00;97525.88;4995632;28;20015;-87
2023/06/10 06:06:30;;;;;;;1999.90;999.90;;;;;;;19.97;100.00;97543.59;4977940;28;20027;-85
2023/06/10 06:08:55;;;;;;;1999.90;999.90;;;;;;;20.04;100.00;97544.56;4961895;28;20019;-85
2023/06/10 06:11:26;;;;;;;1999.90;999.90;;;;;;;20.42;100.00;97548.47;4977515;28;20091;-86
2023/06/10 06:13:51;;;;;;;1999.90;999.90;;;;;;;20.42;100.00;97554.03;4978434;28;20035;-85
2023/06/10 06:16:18;;;;;;;1999.90;999.90;;;;;;;20.12;100.00;97537.97;4978292;28;20050;-86
2023/06/10 06:18:44;;;;;;;1999.90;999.90;;;;;;;20.01;100.00;97544.47;4979630;28;20023;-87
2023/06/10 06:21:09;;;;;;;1999.90;999.90;;;;;;;20.68;100.00;97551.28;4977169;28;20022;-84
2023/06/10 06:23:35;;;;;;;1999.90;999.90;;;;;;;21.13;100.00;97550.47;4999378;28;20110;-85
2023/06/10 06:26:01;;;;;;;1999.90;999.90;;;;;;;21.28;100.00;97541.16;4982398;28;20054;-86
2023/06/10 06:28:30;;;;;;;1999.90;999.90;;;;;;;20.64;100.00;97548.44;4984239;28;20046;-86
2023/06/10 06:30:57;;;;;;;1999.90;999.90;;;;;;;20.48;100.00;97545.03;5012044;28;20030;-88
2023/06/10 06:33:22;;;;;;;1999.90;999.90;;;;;;;20.51;100.00;97533.16;5001693;28;20058;-82
2023/06/10 06:35:49;;;;;;;1999.90;999.90;;;;;;;19.76;100.00;97513.44;5002332;28;20090;-87
2023/06/10 06:38:15;;;;;;;1999.90;999.90;;;;;;;20.17;100.00;97539.66;4984857;28;20022;-89
2023/06/10 06:40:41;;;;;;;1999.90;999.90;;;;;;;20.09;100.00;97508.16;4982870;28;20011;-89
2023/06/10 06:43:06;;;;;;;1999.90;999.90;;;;;;;20.39;100.00;97530.56;4975980;28;20058;-87
2023/06/10 06:45:33;;;;;;;1999.90;999.90;;;;;;;20.53;100.00;97541.91;4989668;28;20018;-89
2023/06/10 06:47:59;;;;;;;1999.90;999.90;;;;;;;20.97;100.00;97549.78;4977771;28;20027;-74
2023/06/10 06:50:24;;;;;;;1999.90;999.90;;;;;;;20.98;100.00;97543.06;4971304;28;20033;-76
2023/06/10 06:52:50;;;;;;;1999.90;999.90;;;;;;;21.18;100.00;97550.97;4978531;28;20067;-72
2023/06/10 06:55:16;;;;;;;1999.90;999.90;;;;;;;21.18;100.00;97545.38;5001566;28;20047;-72
2023/06/10 06:57:41;;;;;;;1999.90;999.90;;;;;;;21.26;100.00;97543.53;5000264;28;20035;-72
2023/06/10 07:00:08;;;;;;;1999.90;999.90;;;;;;;21.32;100.00;97544.81;4984533;28;20041;-72
2023/06/10 07:02:35;;;;;;;1999.90;999.90;;;;;;;21.09;100.00;97544.84;5001112;28;20093;-73
2023/06/10 07:05:00;;;;;;;1999.90;999.90;;;;;;;20.64;100.00;97542.13;5008610;28;20064;-72
2023/06/10 07:07:25;;;;;;;1999.90;999.90;;;;;;;20.53;100.00;97536.34;5002080;28;20066;-73
2023/06/10 07:09:51;;;;;;;1999.90;999.90;;;;;;;20.96;100.00;97540.63;5000157;28;20069;-72
2023/06/10 07:12:17;;;;;;;1999.90;999.90;;;;;;;20.69;100.00;97541.78;5001295;28;20025;-72
2023/06/10 07:14:43;;;;;;;1999.90;999.90;;;;;;;21.13;100.00;97534.59;5001916;28;20140;-72
2023/06/10 07:17:08;;;;;;;1999.90;999.90;;;;;;;21.63;100.00;97532.50;4997065;28;20125;-74
2023/06/10 07:19:33;;;;;;;1999.90;999.90;;;;;;;21.80;100.00;97537.50;4991821;28;20062;-73
2023/06/10 07:21:58;;;;;;;1999.90;999.90;;;;;;;21.69;100.00;97542.13;4991493;28;20029;-74
2023/06/10 07:24:24;;;;;;;1999.90;999.90;;;;;;;21.68;100.00;97541.31;4994493;28;20443;-77
2023/06/10 07:26:50;;;;;;;1999.90;999.90;;;;;;;21.65;100.00;97542.06;4974695;28;20041;-80
2023/06/10 07:29:15;;;;;;;1999.90;999.90;;;;;;;21.49;100.00;97537.91;5009509;28;20517;-77
2023/06/10 07:31:42;;;;;;;1999.90;999.90;;;;;;;21.07;100.00;97538.03;4983307;28;20022;-79
2023/06/10 07:34:07;;;;;;;1999.90;999.90;;;;;;;21.34;100.00;97543.25;5007246;28;20030;-78
2023/06/10 07:36:33;;;;;;;1999.90;999.90;;;;;;;21.13;100.00;97547.69;4991463;28;20430;-77
2023/06/10 07:38:58;;;;;;;1999.90;999.90;;;;;;;20.93;100.00;97546.94;4991639;28;20476;-78
2023/06/10 07:41:25;;;;;;;1999.90;999.90;;;;;;;20.42;100.00;97542.91;4991680;28;20019;-79
2023/06/10 07:43:54;;;;;;;1999.90;999.90;;;;;;;21.12;100.00;97540.53;4991534;28;20080;-78
2023/06/10 07:46:23;;;;;;;1999.90;999.90;;;;;;;21.39;100.00;97536.56;4991538;28;20030;-79
2023/06/10 07:48:48;;;;;;;1999.90;999.90;;;;;;;21.38;100.00;97539.72;4992008;28;20022;-80
2023/06/10 07:51:15;;;;;;;1999.90;999.90;;;;;;;22.04;100.00;97541.78;4991751;28;20037;-80
2023/06/10 07:53:41;;;;;;;1999.90;999.90;;;;;;;22.34;100.00;97548.09;4991332;28;20030;-80
2023/06/10 07:56:06;;;;;;;1999.90;999.90;;;;;;;22.64;100.00;97542.44;4973911;28;20483;-81
2023/06/10 07:58:31;;;;;;;1999.90;999.90;;;;;;;22.81;100.00;97547.38;4991303;28;20452;-79
2023/06/10 08:00:57;;;;;;;1999.90;999.90;;;;;;;23.20;100.00;97540.13;5005777;28;20030;-77
2023/06/10 08:03:22;;;;;;;1999.90;999.90;;;;;;;23.58;100.00;97543.59;4973955;28;20100;-80
2023/06/10 08:05:47;;;;;;;1999.90;999.90;;;;;;;23.43;100.00;97540.69;4974288;28;20023;-79
2023/06/10 08:08:13;;;;;;;1999.90;999.90;;;;;;;23.99;100.00;97550.56;4991409;28;20121;-78
2023/06/10 08:10:38;;;;;;;1999.90;999.90;;;;;;;24.83;99.97;97550.03;4991260;28;20030;-80
2023/06/10 08:13:04;;;;;;;1999.90;999.90;;;;;;;25.25;80.03;97554.78;5006485;28;20035;-73
2023/06/10 08:15:29;;;;;;;1999.90;999.90;;;;;;;25.67;76.78;97542.75;4990833;28;20046;-74
2023/06/10 08:17:56;;;;;;;1999.90;999.90;;;;;;;26.32;71.35;97553.31;4973451;28;20042;-74
2023/06/10 08:20:21;;;;;;;1999.90;999.90;;;;;;;25.99;71.12;97556.66;4991169;28;20026;-74
2023/06/10 08:22:47;;;;;;;1999.90;999.90;;;;;;;25.82;73.97;97549.91;4991210;28;20534;-75
2023/06/10 08:25:12;;;;;;;1999.90;999.90;;;;;;;26.68;71.52;97558.72;4991117;28;20065;-75
2023/06/10 08:27:37;;;;;;;1999.90;999.90;;;;;;;26.17;68.53;97556.59;4973641;28;20369;-75
2023/06/10 08:30:03;;;;;;;1999.90;999.90;;;;;;;25.06;73.86;97546.81;4973445;28;20117;-76
2023/06/10 08:32:29;;;;;;;1999.90;999.90;;;;;;;24.38;78.66;97545.13;5006024;28;20027;-75
2023/06/10 08:34:55;;;;;;;1999.90;999.90;;;;;;;26.23;69.86;97550.16;4991139;28;20037;-75
2023/06/10 08:37:20;;;;;;;1999.90;999.90;;;;;;;27.48;64.27;97548.88;4990968;28;20018;-75
2023/06/10 08:39:45;;;;;;;1999.90;999.90;;;;;;;27.78;62.65;97561.44;4973627;28;20264;-79
2023/06/10 08:42:27;;;;;;;1999.90;999.90;;;;;;;28.49;59.28;97556.53;4967838;28;20396;-74
2023/06/10 08:44:56;;;;;;;1999.90;999.90;;;;;;;28.00;60.50;97554.34;4969617;28;20448;-75
2023/06/10 08:47:23;;;;;;;1999.90;999.90;;;;;;;29.58;56.14;97559.66;4953776;28;20476;-78
2023/06/10 08:49:48;;;;;;;1999.90;999.90;;;;;;;29.31;54.68;97561.75;4971068;28;20015;-74
2023/06/10 08:52:18;;;;;;;1999.90;999.90;;;;;;;30.41;51.73;97560.47;4970890;28;20049;-77
2023/06/10 08:54:58;;;;;;;1999.90;999.90;;;;;;;30.53;51.61;97556.97;4971012;28;20484;-78
2023/06/10 08:57:26;;;;;;;1999.90;999.90;;;;;;;31.23;48.58;97562.22;4970794;28;20046;-75
2023/06/10 08:59:54;;;;;;;1999.90;999.90;;;;;;;31.18;49.62;97559.91;4970928;28;20062;-76
2023/06/10 09:02:20;;;;;;;1999.90;999.90;;;;;;;31.33;50.30;97561.13;4971042;28;20023;-74
2023/06/10 09:04:47;;;;;;;1999.90;999.90;;;;;;;32.18;45.94;97564.53;4971362;28;20380;-76
2023/06/10 09:07:14;;;;;;;1999.90;999.90;;;;;;;32.11;45.54;97561.94;4970453;28;20034;-75
2023/06/10 09:09:42;;;;;;;1999.90;999.90;;;;;;;32.47;46.51;97564.50;4970779;28;20030;-74
2023/06/10 09:12:08;;;;;;;1999.90;999.90;;;;;;;32.36;44.85;97559.94;4969679;28;20081;-76
2023/06/10 09:14:33;;;;;;;1999.90;999.90;;;;;;;33.92;41.21;97557.75;4973962;28;20408;-77
2023/06/10 09:16:59;;;;;;;1999.90;999.90;;;;;;;33.81;42.92;97552.44;4957501;28;20058;-75
2023/06/10 09:19:28;;;;;;;1999.90;999.90;;;;;;;33.56;42.52;97554.53;4957030;28;20054;-75
2023/06/10 09:21:53;;;;;;;1999.90;999.90;;;;;;;33.91;40.39;97553.31;4974167;28;20027;-77
2023/06/10 09:24:22;;;;;;;1999.90;999.90;;;;;;;34.96;39.72;97556.22;4974304;28;20049;-76
2023/06/10 09:26:47;;;;;;;1999.90;999.90;;;;;;;34.07;41.84;97552.34;4956965;28;20030;-76
2023/06/10 09:29:12;;;;;;;1999.90;999.90;;;;;;;34.25;39.51;97558.16;4974344;28;20543;-78
2023/06/10 09:31:39;;;;;;;1999.90;999.90;;;;;;;29.16;51.22;97532.97;4976036;28;20320;-75
2023/06/10 09:34:13;;;;;;;1999.90;999.90;;;;;;;28.90;53.55;97528.19;4974035;28;20276;-77
2023/06/10 09:36:39;;;;;;;1999.90;999.90;;;;;;;29.63;50.96;97533.75;4981566;28;20031;-78
2023/06/10 09:39:14;;;;;;;1999.90;999.90;;;;;;;30.25;52.15;97515.22;4977653;28;20495;-76
2023/06/10 09:41:40;;;;;;;1999.90;999.90;;;;;;;30.83;48.88;97536.09;4976664;28;20503;-75
2023/06/10 09:44:14;;;;;;;1999.90;999.90;;;;;;;32.95;44.54;97538.72;4993062;28;20598;-76
2023/06/10 09:46:40;;;;;;;1999.90;999.90;;;;;;;30.72;49.73;97530.72;4993195;28;20053;-75
2023/06/10 09:49:05;;;;;;;1999.90;999.90;;;;;;;31.75;47.99;97528.13;4982846;28;20480;-76
2023/06/10 09:51:32;;;;;;;1999.90;999.90;;;;;;;32.42;44.35;97536.75;4956068;28;20034;-74
2023/06/10 09:53:58;;;;;;;1999.90;999.90;;;;;;;32.17;46.08;97538.25;4955720;28;20186;-76
2023/06/10 09:56:35;;;;;;;1999.90;999.90;;;;;;;32.13;47.44;97531.91;4973503;28;20038;-76
2023/06/10 09:59:00;;;;;;;1999.90;999.90;;;;;;;30.64;49.76;97523.63;4955842;28;20022;-76
2023/06/10 10:01:26;;;;;;;1999.90;999.90;;;;;;;29.41;52.28;97515.69;4956196;28;20122;-74
2023/06/10 10:03:51;;;;;;;1999.90;999.90;;;;;;;28.56;54.47;97516.22;4973415;28;20514;-77
2023/06/10 10:06:19;;;;;;;1999.90;999.90;;;;;;;27.91;57.40;97500.63;4956072;28;20027;-75
2023/06/10 10:08:49;;;;;;;1999.90;999.90;;;;;;;27.64;58.76;97501.31;4973231;28;20035;-76
2023/06/10 10:11:17;;;;;;;1999.90;999.90;;;;;;;27.91;59.58;97503.44;4973187;28;20499;-75
2023/06/10 10:13:45;;;;;;;1999.90;999.90;;;;;;;29.90;53.58;97493.38;4973234;28;20035;-75
2023/06/10 10:16:16;;;;;;;1999.90;999.90;;;;;;;31.28;49.06;97505.13;4972557;28;20051;-75
2023/06/10 10:18:45;;;;;;;1999.90;999.90;;;;;;;30.24;52.06;97502.31;4973094;28;20138;-78
2023/06/10 10:21:12;;;;;;;1999.90;999.90;;;;;;;28.83;56.05;97490.88;4991620;28;20085;-75
2023/06/10 10:23:53;;;;;;;1999.90;999.90;;;;;;;27.62;58.84;97480.47;4991932;28;20042;-78
2023/06/10 10:26:21;;;;;;;1999.90;999.90;;;;;;;27.39;59.33;97491.53;5007800;28;20113;-77
2023/06/10 10:29:18;;;;;;;1999.90;999.90;;;;;;;26.71;63.13;97476.50;5012001;28;20025;-76
2023/06/10 10:31:46;;;;;;;1999.90;999.90;;;;;;;26.25;63.75;97465.63;5012040;28;20032;-75
2023/06/10 10:34:19;;;;;;;1999.90;999.90;;;;;;;25.14;67.09;97472.00;5002435;28;20030;-76
2023/06/10 10:36:45;;;;;;;1999.90;999.90;;;;;;;25.14;66.97;97475.63;4991434;28;20030;-75
2023/06/10 10:39:12;;;;;;;1999.90;999.90;;;;;;;25.34;68.42;97465.56;4980051;28;20041;-74
2023/06/10 10:41:38;;;;;;;1999.90;999.90;;;;;;;25.11;68.81;97454.03;4990837;28;20105;-75
2023/06/10 10:44:07;;;;;;;1999.90;999.90;;;;;;;24.95;70.21;97453.66;4988811;28;20043;-73
2023/06/10 10:46:48;;;;;;;1999.90;999.90;;;;;;;24.83;70.50;97465.25;4989973;28;20049;-75
2023/06/10 10:49:15;;;;;;;1999.90;999.90;;;;;;;25.15;69.21;97457.63;4988866;28;20443;-76
2023/06/10 10:51:55;;;;;;;1999.90;999.90;;;;;;;25.08;71.65;97471.63;4975027;28;20030;-74